Latest Weather Observations for Melville Water

IDW60901

Issued at 8:31 am WST Thursday 21 June 2018 (issued every 10 minutes, with the page automatically refreshed every 10 minutes)

About weather observations | Map of Perth area stations | Latest observations for Perth area | Other Formats
Station Details ID: 009091 Name: INNER DOLPHIN PYLON Lat: -31.99 Lon: 115.83 Height: 0.0 m
Data from the previous 72 hours. | See also: Recent months at Melville Water
Date/Time
WST
Temp
°C
App
Temp
°C
Dew
Point
°C
Rel
Hum
%
Delta-T
°C
Wind Press
QNH
hPa
Press
MSL
hPa
Rain since
9am
mm
Dir  Spd
km/h
Gust
km/h
Spd
kts
Gust
kts
21/08:30am - - - - - NNW 7 11 4 6 - - -
21/08:00am - - - - - NW 4 9 2 5 - - -
21/07:30am - - - - - NE 11 13 6 7 - - -
21/07:00am - - - - - ENE 7 9 4 5 - - -
21/06:30am - - - - - ENE 4 6 2 3 - - -
21/06:00am - - - - - NE 6 7 3 4 - - -
21/05:30am - - - - - ENE 6 7 3 4 - - -
21/05:00am - - - - - NNE 7 9 4 5 - - -
21/04:30am - - - - - NE 7 9 4 5 - - -
21/04:00am - - - - - ENE 9 13 5 7 - - -
21/03:30am - - - - - NNE 9 11 5 6 - - -
21/03:00am - - - - - NE 9 11 5 6 - - -
21/02:30am - - - - - NNE 9 11 5 6 - - -
21/02:00am - - - - - E 7 9 4 5 - - -
21/01:30am - - - - - CALM 0 2 0 1 - - -
21/01:00am - - - - - NE 2 4 1 2 - - -
21/12:30am - - - - - ESE 6 7 3 4 - - -
21/12:00am - - - - - NNE 6 6 3 3 - - -
 
Date/Time
WST
Temp
°C
App
Temp
°C
Dew
Point
°C
Rel
Hum
%
Delta-T
°C
Wind Press
QNH
hPa
Press
MSL
hPa
Rain since
9am
mm
Dir  Spd
km/h
Gust
km/h
Spd
kts
Gust
kts
20/11:30pm - - - - - NE 7 9 4 5 - - -
20/11:00pm - - - - - NE 7 9 4 5 - - -
20/10:30pm - - - - - WSW 4 9 2 5 - - -
20/10:00pm - - - - - NNE 4 4 2 2 - - -
20/09:30pm - - - - - ENE 4 6 2 3 - - -
20/09:00pm - - - - - ENE 2 6 1 3 - - -
20/08:30pm - - - - - N 2 4 1 2 - - -
20/08:00pm - - - - - CALM 0 0 0 0 - - -
20/07:30pm - - - - - N 4 4 2 2 - - -
20/07:00pm - - - - - SW 4 6 2 3 - - -
20/06:30pm - - - - - SW 4 6 2 3 - - -
20/06:00pm - - - - - W 9 11 5 6 - - -
20/05:30pm - - - - - WSW 9 17 5 9 - - -
20/05:00pm - - - - - WSW 6 6 3 3 - - -
20/04:30pm - - - - - SW 11 13 6 7 - - -
20/04:00pm - - - - - SW 13 17 7 9 - - -
20/03:30pm - - - - - WSW 4 9 2 5 - - -
20/03:00pm - - - - - WSW 2 2 1 1 - - -
20/02:30pm - - - - - N 2 4 1 2 - - -
20/02:00pm - - - - - E 2 2 1 1 - - -
20/01:30pm - - - - - CALM 0 2 0 1 - - -
20/01:00pm - - - - - E 4 6 2 3 - - -
20/12:30pm - - - - - E 6 7 3 4 - - -
20/12:00pm - - - - - ENE 9 11 5 6 - - -
20/11:30am - - - - - NE 9 11 5 6 - - -
20/11:00am - - - - - NE 9 11 5 6 - - -
20/10:30am - - - - - NE 9 11 5 6 - - -
20/10:00am - - - - - W 6 7 3 4 - - -
20/09:30am - - - - - NE 9 11 5 6 - - -
20/09:00am - - - - - NE 9 11 5 6 - - -
20/08:30am - - - - - NNE 6 11 3 6 - - -
20/08:00am - - - - - ENE 7 9 4 5 - - -
20/07:30am - - - - - ENE 7 9 4 5 - - -
20/07:00am - - - - - NE 9 11 5 6 - - -
20/06:30am - - - - - ENE 7 11 4 6 - - -
20/06:00am - - - - - ENE 6 7 3 4 - - -
20/05:30am - - - - - NE 6 7 3 4 - - -
20/05:00am - - - - - NE 9 11 5 6 - - -
20/04:30am - - - - - NNE 9 11 5 6 - - -
20/04:00am - - - - - NE 9 11 5 6 - - -
20/03:30am - - - - - NNE 9 11 5 6 - - -
20/03:00am - - - - - NNE 11 13 6 7 - - -
20/02:30am - - - - - NNE 9 13 5 7 - - -
20/02:00am - - - - - NE 9 11 5 6 - - -
20/01:30am - - - - - NE 9 15 5 8 - - -
20/01:00am - - - - - ENE 11 13 6 7 - - -
20/12:30am - - - - - ENE 9 11 5 6 - - -
20/12:00am - - - - - NE 9 11 5 6 - - -
 
Date/Time
WST
Temp
°C
App
Temp
°C
Dew
Point
°C
Rel
Hum
%
Delta-T
°C
Wind Press
QNH
hPa
Press
MSL
hPa
Rain since
9am
mm
Dir  Spd
km/h
Gust
km/h
Spd
kts
Gust
kts
19/11:30pm - - - - - NNE 11 13 6 7 - - -
19/11:00pm - - - - - N 9 13 5 7 - - -
19/10:30pm - - - - - NW 6 11 3 6 - - -
19/10:00pm - - - - - NNW 9 11 5 6 - - -
19/09:30pm - - - - - NNW 9 13 5 7 - - -
19/09:00pm - - - - - NNE 6 7 3 4 - - -
19/08:30pm - - - - - WSW 9 13 5 7 - - -
19/08:00pm - - - - - SW 7 11 4 6 - - -
19/07:30pm - - - - - WSW 17 26 9 14 - - -
19/07:00pm - - - - - WSW 11 17 6 9 - - -
19/06:30pm - - - - - WNW 7 17 4 9 - - -
19/06:00pm - - - - - W 9 13 5 7 - - -
19/05:30pm - - - - - NW 9 13 5 7 - - -
19/05:00pm - - - - - WNW 9 13 5 7 - - -
19/04:30pm - - - - - WSW 17 22 9 12 - - -
19/04:00pm - - - - - WSW 11 19 6 10 - - -
19/03:30pm - - - - - W 9 13 5 7 - - -
19/03:00pm - - - - - NE 4 7 2 4 - - -
19/02:30pm - - - - - N 6 17 3 9 - - -
19/02:00pm - - - - - NW 6 11 3 6 - - -
19/01:30pm - - - - - NNE 2 4 1 2 - - -
19/01:00pm - - - - - NNW 4 9 2 5 - - -
19/12:30pm - - - - - N 11 15 6 8 - - -
19/12:00pm - - - - - NNE 15 19 8 10 - - -
19/11:30am - - - - - NE 13 17 7 9 - - -
19/11:00am - - - - - NNE 13 15 7 8 - - -
19/10:30am - - - - - NNE 15 17 8 9 - - -
19/10:00am - - - - - NE 11 13 6 7 - - -
19/09:30am - - - - - NNE 13 15 7 8 - - -
19/09:00am - - - - - NNE 9 15 5 8 - - -
19/08:30am - - - - - NE 9 13 5 7 - - -
19/08:00am - - - - - N 7 13 4 7 - - -
19/07:30am - - - - - NE 13 17 7 9 - - -
19/07:00am - - - - - NE 11 15 6 8 - - -
19/06:30am - - - - - NNE 9 11 5 6 - - -
19/06:00am - - - - - ENE 7 13 4 7 - - -
19/05:30am - - - - - NE 15 19 8 10 - - -
19/05:00am - - - - - NE 13 15 7 8 - - -
19/04:30am - - - - - NE 13 17 7 9 - - -
19/04:00am - - - - - NE 11 15 6 8 - - -
19/03:30am - - - - - NE 11 15 6 8 - - -
19/03:00am - - - - - ENE 6 7 3 4 - - -
19/02:30am - - - - - NE 7 9 4 5 - - -
19/02:00am - - - - - NE 7 11 4 6 - - -
19/01:30am - - - - - SE 22 28 12 15 - - -
19/01:00am - - - - - ENE 6 9 3 5 - - -
19/12:30am - - - - - ENE 7 11 4 6 - - -
19/12:00am - - - - - E 11 13 6 7 - - -
 
Date/Time
WST
Temp
°C
App
Temp
°C
Dew
Point
°C
Rel
Hum
%
Delta-T
°C
Wind Press
QNH
hPa
Press
MSL
hPa
Rain since
9am
mm
Dir  Spd
km/h
Gust
km/h
Spd
kts
Gust
kts
18/11:30pm - - - - - SW 13 20 7 11 - - -
18/11:00pm - - - - - WSW 11 19 6 10 - - -
18/10:30pm - - - - - SW 22 30 12 16 - - -
18/10:00pm - - - - - WSW 20 30 11 16 - - -
18/09:30pm - - - - - SW 24 32 13 17 - - -
18/09:00pm - - - - - WSW 9 17 5 9 - - -
18/08:30pm - - - - - SW 13 17 7 9 - - -
18/08:00pm - - - - - SW 26 33 14 18 - - -
18/07:30pm - - - - - WSW 20 28 11 15 - - -
18/07:00pm - - - - - SW 11 19 6 10 - - -
18/06:30pm - - - - - WSW 19 30 10 16 - - -
18/06:00pm - - - - - WSW 20 33 11 18 - - -
18/05:30pm - - - - - SW 19 28 10 15 - - -
18/05:00pm - - - - - WSW 20 28 11 15 - - -
18/04:30pm - - - - - WSW 26 35 14 19 - - -
18/04:00pm - - - - - SW 32 41 17 22 - - -
18/03:30pm - - - - - SW 33 44 18 24 - - -
18/03:00pm - - - - - SW 33 43 18 23 - - -
18/02:30pm - - - - - SW 39 48 21 26 - - -
18/02:00pm - - - - - SW 35 46 19 25 - - -
18/01:30pm - - - - - SW 35 46 19 25 - - -
18/01:00pm - - - - - SW 39 52 21 28 - - -
18/12:30pm - - - - - WSW 39 54 21 29 - - -
18/12:00pm - - - - - SW 44 56 24 30 - - -
18/11:54am - - - - - WSW 37 56 20 30 - - -
18/11:30am - - - - - WSW 33 48 18 26 - - -
18/11:00am - - - - - WSW 37 59 20 32 - - -
18/10:52am - - - - - WSW 32 50 17 27 - - -
18/10:30am - - - - - WSW 30 43 16 23 - - -
18/10:00am - - - - - WSW 35 54 19 29 - - -
18/09:30am - - - - - WSW 28 46 15 25 - - -
18/09:29am - - - - - WSW 28 46 15 25 - - -
18/09:00am - - - - - WSW 33 48 18 26 - - -
18/08:46am - - - - - WSW 32 52 17 28 - - -

Latest Capital City Observations: Canberra | Sydney | Melbourne | Brisbane | Adelaide | Perth | Hobart | Darwin

Other Formats:

Comma delimited format used in spreadsheet applications
http://www.bom.gov.au/fwo/IDW60901/IDW60901.95620.axf

JavaScript Object Notation format (JSON) in row-major order
http://www.bom.gov.au/fwo/IDW60901/IDW60901.95620.json